Time;durP1;ratioP1;P1;durP2;ratioP2;P2;SDS_P1;SDS_P2;PMS_P1;PMS_P2;Temp;Humidity;BMP_temperature;BMP_pressure;BME280_temperature;BME280_humidity;BME280_pressure;Samples;Min_cycle;Max_cycle;Signal;HPM_P1;HPM_P2
2023/01/26 00:00:05;;;;;;;6.18;3.60;;;19.40;52.80;;;;;;5048930;28;20045;-60
2023/01/26 00:02:30;;;;;;;5.90;4.03;;;19.40;52.80;;;;;;5051951;28;20037;-60
2023/01/26 00:04:56;;;;;;;7.80;4.20;;;19.40;52.80;;;;;;5052832;28;20049;-59
2023/01/26 00:07:21;;;;;;;5.35;3.78;;;19.40;52.80;;;;;;5052110;28;20033;-60
2023/01/26 00:09:47;;;;;;;5.50;3.67;;;19.30;52.70;;;;;;5052837;28;20492;-60
2023/01/26 00:12:13;;;;;;;5.45;3.53;;;19.30;52.70;;;;;;5051025;28;20041;-60
2023/01/26 00:14:50;;;;;;;6.03;3.58;;;19.30;52.90;;;;;;5051340;28;20056;-60
2023/01/26 00:17:24;;;;;;;5.32;3.53;;;19.30;52.80;;;;;;5051807;28;20044;-60
2023/01/26 00:19:51;;;;;;;6.38;3.55;;;19.30;52.80;;;;;;5052185;28;20048;-61
2023/01/26 00:22:17;;;;;;;5.97;3.90;;;19.30;52.90;;;;;;5053035;28;20037;-60
2023/01/26 00:24:43;;;;;;;5.75;3.53;;;19.30;52.90;;;;;;5052855;28;20512;-62
2023/01/26 00:27:09;;;;;;;6.07;3.50;;;19.30;52.90;;;;;;5051444;28;20045;-60
2023/01/26 00:29:34;;;;;;;6.63;3.53;;;19.20;52.90;;;;;;5052887;28;20045;-59
2023/01/26 00:32:00;;;;;;;5.40;3.80;;;19.20;52.90;;;;;;5052647;28;20130;-59
2023/01/26 00:34:25;;;;;;;5.22;3.53;;;19.20;52.90;;;;;;5051627;28;20048;-59
2023/01/26 00:36:51;;;;;;;4.63;3.05;;;19.20;53.00;;;;;;5052561;28;20040;-59
2023/01/26 00:39:17;;;;;;;5.15;3.60;;;19.20;53.00;;;;;;5052808;28;20515;-59
2023/01/26 00:44:27;;;;;;;5.28;3.50;;;19.10;52.90;;;;;;5052605;28;20045;-59
2023/01/26 00:46:52;;;;;;;5.63;3.65;;;19.10;52.90;;;;;;5052408;28;20369;-59
2023/01/26 00:49:18;;;;;;;5.75;3.28;;;19.10;52.90;;;;;;5050302;28;20045;-59
2023/01/26 00:51:43;;;;;;;4.97;3.30;;;19.10;52.90;;;;;;5051478;28;20037;-59
2023/01/26 00:54:09;;;;;;;5.80;3.72;;;19.10;52.90;;;;;;5052066;28;20090;-60
2023/01/26 00:56:35;;;;;;;4.80;3.33;;;19.00;52.90;;;;;;5051525;28;20076;-60
2023/01/26 00:59:00;;;;;;;6.60;3.75;;;19.00;52.90;;;;;;5052047;28;20077;-60
2023/01/26 01:01:26;;;;;;;5.63;3.63;;;19.00;52.80;;;;;;5052265;28;20068;-60
2023/01/26 01:03:51;;;;;;;5.97;3.72;;;19.00;52.80;;;;;;5049907;28;20052;-60
2023/01/26 01:06:17;;;;;;;4.97;3.35;;;19.00;52.80;;;;;;5052182;28;20049;-60
2023/01/26 01:08:42;;;;;;;6.88;3.58;;;19.00;52.70;;;;;;5051491;28;20041;-60
2023/01/26 01:11:09;;;;;;;7.28;3.72;;;19.00;52.80;;;;;;5051771;28;20402;-60
2023/01/26 01:13:35;;;;;;;5.18;3.35;;;19.00;52.70;;;;;;5052025;28;20052;-60
2023/01/26 01:16:07;;;;;;;5.55;3.78;;;19.00;52.80;;;;;;5050724;28;20041;-60
2023/01/26 01:18:32;;;;;;;4.85;3.33;;;19.00;52.70;;;;;;5051701;28;20053;-60
2023/01/26 01:20:58;;;;;;;7.03;3.97;;;18.90;52.60;;;;;;5051837;28;20091;-60
2023/01/26 01:23:26;;;;;;;5.35;3.63;;;18.90;52.60;;;;;;5051580;28;20066;-60
2023/01/26 01:25:58;;;;;;;6.28;3.90;;;18.90;52.70;;;;;;5050558;28;20098;-60
2023/01/26 01:28:24;;;;;;;5.72;3.65;;;18.90;52.60;;;;;;5052100;28;20055;-60
2023/01/26 01:30:49;;;;;;;6.10;4.03;;;18.90;52.60;;;;;;5050795;28;20041;-60
2023/01/26 01:33:15;;;;;;;5.10;3.40;;;18.90;52.60;;;;;;5050731;28;20113;-60
2023/01/26 01:35:40;;;;;;;5.57;3.92;;;18.90;52.60;;;;;;5059060;28;20040;-60
2023/01/26 01:38:06;;;;;;;5.70;3.88;;;18.90;52.50;;;;;;5070575;28;20041;-60
2023/01/26 01:40:31;;;;;;;5.53;3.40;;;18.90;52.60;;;;;;5074963;28;20177;-60
2023/01/26 01:42:57;;;;;;;5.93;3.97;;;18.90;52.60;;;;;;5075935;28;20494;-60
2023/01/26 01:45:25;;;;;;;6.47;3.58;;;18.90;52.60;;;;;;5074787;28;20048;-60
2023/01/26 01:47:55;;;;;;;5.43;3.50;;;18.80;52.60;;;;;;5075421;28;20438;-60
2023/01/26 01:50:21;;;;;;;5.88;3.85;;;18.80;52.50;;;;;;5076225;28;20044;-61
2023/01/26 01:52:46;;;;;;;5.90;3.88;;;18.80;52.60;;;;;;5075033;28;20041;-61
2023/01/26 01:55:13;;;;;;;6.32;4.10;;;18.80;52.60;;;;;;5075623;28;20123;-60
2023/01/26 01:57:51;;;;;;;6.50;4.05;;;18.80;52.60;;;;;;5074718;28;20119;-60
2023/01/26 02:00:19;;;;;;;6.10;4.00;;;18.80;52.60;;;;;;5074705;28;20111;-60
2023/01/26 02:03:09;;;;;;;7.05;4.22;;;18.80;52.60;;;;;;5074639;28;20044;-60
2023/01/26 02:05:32;;;;;;;6.03;4.18;;;18.80;52.60;;;;;;5073514;28;20127;-61
2023/01/26 02:07:58;;;;;;;5.30;3.88;;;18.70;52.50;;;;;;5073986;28;20106;-61
2023/01/26 02:10:23;;;;;;;7.57;4.25;;;18.70;53.20;;;;;;5074222;28;20079;-61
2023/01/26 02:12:55;;;;;;;6.30;4.13;;;18.80;52.60;;;;;;5073388;28;20040;-60
2023/01/26 02:15:21;;;;;;;7.38;4.20;;;18.70;52.50;;;;;;5073821;28;20128;-60
2023/01/26 02:17:46;;;;;;;5.25;3.67;;;18.70;52.50;;;;;;5075365;28;20124;-60
2023/01/26 02:20:27;;;;;;;5.35;3.97;;;18.70;52.50;;;;;;5074404;28;20480;-61
2023/01/26 02:23:00;;;;;;;6.57;3.92;;;18.70;52.50;;;;;;5073692;28;20106;-60
2023/01/26 02:25:35;;;;;;;7.55;4.43;;;18.70;52.50;;;;;;5073680;28;20106;-60
2023/01/26 02:28:01;;;;;;;6.88;4.18;;;18.70;52.60;;;;;;5056108;28;20480;-60
2023/01/26 02:30:27;;;;;;;6.85;3.88;;;18.70;52.60;;;;;;5073958;28;20504;-60
2023/01/26 02:32:52;;;;;;;5.05;3.83;;;18.70;52.60;;;;;;5056625;28;20126;-60
2023/01/26 02:35:18;;;;;;;6.32;4.22;;;18.70;52.50;;;;;;5056431;28;20086;-60
2023/01/26 02:37:43;;;;;;;6.68;4.35;;;18.70;52.50;;;;;;5073690;28;20044;-60
2023/01/26 02:40:14;;;;;;;5.15;3.67;;;18.70;52.50;;;;;;5073960;28;20114;-61
2023/01/26 02:42:43;;;;;;;6.30;4.00;;;18.80;52.50;;;;;;5073560;28;20404;-60
2023/01/26 02:45:10;;;;;;;6.50;4.10;;;18.80;52.50;;;;;;5073249;28;20132;-60
2023/01/26 02:47:36;;;;;;;6.50;4.33;;;18.80;52.50;;;;;;5074104;28;20066;-60
2023/01/26 02:50:01;;;;;;;5.90;3.97;;;18.80;52.50;;;;;;5073934;28;20033;-60
2023/01/26 02:52:29;;;;;;;5.65;4.07;;;18.80;52.50;;;;;;5074850;28;20480;-60
2023/01/26 02:57:51;;;;;;;5.68;3.78;;;18.80;52.40;;;;;;5069574;28;20052;-60
2023/01/26 03:00:21;;;;;;;5.78;4.10;;;18.80;52.40;;;;;;5074243;28;20102;-60
2023/01/26 03:02:47;;;;;;;6.00;4.07;;;18.80;52.40;;;;;;5073811;28;20510;-60
2023/01/26 03:05:12;;;;;;;6.90;4.20;;;18.90;52.40;;;;;;5074271;28;20084;-60
2023/01/26 03:07:38;;;;;;;5.53;3.60;;;18.90;52.40;;;;;;5074113;28;20072;-61
2023/01/26 03:10:04;;;;;;;5.85;4.03;;;18.90;52.40;;;;;;5073452;28;20036;-60
2023/01/26 03:12:30;;;;;;;6.05;3.95;;;18.90;52.40;;;;;;5073750;28;20040;-60
2023/01/26 03:17:39;;;;;;;6.07;4.10;;;18.90;52.40;;;;;;5053930;28;20049;-60
2023/01/26 03:28:21;;;;;;;6.55;4.22;;;18.90;52.30;;;;;;5074105;28;20044;-60
2023/01/26 03:30:48;;;;;;;5.22;3.60;;;18.90;52.30;;;;;;5073518;28;20049;-60
2023/01/26 03:33:15;;;;;;;6.22;4.20;;;18.90;52.30;;;;;;5072796;28;20504;-61
2023/01/26 03:35:40;;;;;;;6.20;4.30;;;18.90;52.20;;;;;;5073057;28;20052;-60
2023/01/26 03:38:06;;;;;;;6.03;4.10;;;18.90;52.20;;;;;;5072820;28;20127;-60
2023/01/26 03:57:13;;;;;;;5.70;3.47;;;19.00;52.30;;;;;;5070843;28;20044;-61
2023/01/26 03:59:38;;;;;;;4.95;3.90;;;19.00;52.30;;;;;;5072730;28;20045;-61
2023/01/26 04:10:18;;;;;;;5.05;3.58;;;19.00;52.30;;;;;;5072986;28;20408;-61
2023/01/26 04:12:44;;;;;;;5.43;3.60;;;19.00;52.20;;;;;;5072476;28;20036;-60
2023/01/26 04:23:22;;;;;;;5.22;3.40;;;19.10;52.30;;;;;;5072876;28;20076;-60
2023/01/26 04:25:48;;;;;;;5.00;3.50;;;19.10;52.30;;;;;;5071402;28;20088;-60
2023/01/26 04:28:13;;;;;;;5.22;3.58;;;19.10;52.20;;;;;;5071555;28;20396;-60
2023/01/26 04:30:39;;;;;;;5.82;3.70;;;19.10;52.20;;;;;;5072732;28;20048;-61
2023/01/26 04:33:04;;;;;;;4.93;3.50;;;19.10;52.20;;;;;;5071614;28;20572;-61
2023/01/26 04:35:30;;;;;;;5.07;3.33;;;19.10;52.20;;;;;;5071401;28;20544;-61
2023/01/26 04:37:55;;;;;;;5.47;3.63;;;19.10;52.20;;;;;;5072405;28;20400;-61
2023/01/26 04:40:21;;;;;;;5.38;3.67;;;19.20;52.20;;;;;;5070331;28;20097;-60
2023/01/26 04:42:47;;;;;;;5.32;3.42;;;19.20;52.20;;;;;;5068516;28;20044;-61
2023/01/26 04:45:12;;;;;;;5.10;3.50;;;19.20;52.20;;;;;;5052607;28;20084;-61
2023/01/26 04:47:38;;;;;;;4.88;3.30;;;19.20;52.20;;;;;;5051941;28;20124;-61
2023/01/26 04:50:04;;;;;;;5.70;3.50;;;19.20;52.10;;;;;;5052244;28;20427;-60
2023/01/26 04:52:29;;;;;;;4.75;3.20;;;19.20;52.10;;;;;;5052520;28;20072;-60
2023/01/26 04:54:55;;;;;;;5.18;3.40;;;19.20;52.10;;;;;;5050062;28;20120;-61
2023/01/26 04:57:22;;;;;;;4.88;3.33;;;19.20;52.10;;;;;;5050690;28;20037;-60
2023/01/26 04:59:47;;;;;;;4.65;2.97;;;19.20;52.10;;;;;;5051207;28;20076;-61
2023/01/26 05:02:13;;;;;;;4.47;2.90;;;19.20;52.10;;;;;;5051406;28;20484;-60
2023/01/26 05:04:38;;;;;;;4.50;2.83;;;19.30;52.10;;;;;;5051815;28;20048;-60
2023/01/26 05:07:04;;;;;;;4.63;3.30;;;19.30;52.10;;;;;;5051536;28;20045;-61
2023/01/26 05:09:29;;;;;;;5.15;3.22;;;19.30;52.20;;;;;;5049946;28;20053;-61
2023/01/26 05:12:32;;;;;;;4.32;2.80;;;19.30;52.10;;;;;;5051862;28;20040;-61
2023/01/26 05:14:40;;;;;;;4.40;3.03;;;19.30;52.10;;;;;;5051263;28;20068;-61
2023/01/26 05:17:06;;;;;;;4.07;2.92;;;19.30;52.00;;;;;;5052236;28;20052;-60
2023/01/26 05:19:32;;;;;;;4.43;2.92;;;19.30;52.10;;;;;;5052273;28;20041;-60
2023/01/26 05:21:57;;;;;;;4.97;3.33;;;19.30;52.10;;;;;;5049966;28;20051;-61
2023/01/26 05:24:23;;;;;;;4.07;2.72;;;19.30;52.00;;;;;;5052128;28;20472;-60
2023/01/26 05:27:19;;;;;;;4.88;2.97;;;19.30;52.00;;;;;;5050344;28;20463;-60
2023/01/26 05:29:34;;;;;;;3.67;2.58;;;19.30;52.00;;;;;;5051076;28;20079;-61
2023/01/26 05:32:00;;;;;;;3.55;2.42;;;19.30;52.00;;;;;;5051742;28;20130;-61
2023/01/26 05:34:26;;;;;;;4.20;2.90;;;19.30;52.00;;;;;;5049707;28;20041;-61
2023/01/26 05:36:51;;;;;;;4.85;3.10;;;19.30;52.00;;;;;;5051214;28;20079;-61
2023/01/26 05:39:17;;;;;;;4.35;2.85;;;19.40;52.00;;;;;;5067380;28;20045;-60
2023/01/26 05:41:42;;;;;;;4.47;2.97;;;19.40;52.00;;;;;;5051998;28;20041;-60
2023/01/26 05:44:08;;;;;;;5.13;2.97;;;19.40;52.00;;;;;;5049786;28;20041;-60
2023/01/26 05:46:33;;;;;;;4.00;2.55;;;19.40;52.00;;;;;;5051891;28;20048;-61
2023/01/26 05:48:59;;;;;;;4.38;3.00;;;19.40;52.00;;;;;;5050396;28;20041;-60
2023/01/26 05:51:25;;;;;;;3.95;2.75;;;19.40;52.00;;;;;;5049916;28;20049;-61
2023/01/26 05:53:50;;;;;;;4.38;2.80;;;19.40;52.00;;;;;;5050263;28;20072;-61
2023/01/26 05:56:16;;;;;;;3.75;2.67;;;19.40;52.00;;;;;;5051639;28;20040;-61
2023/01/26 05:58:41;;;;;;;4.28;2.83;;;19.40;51.90;;;;;;5050988;28;20041;-60
2023/01/26 06:01:07;;;;;;;3.80;2.22;;;19.50;52.00;;;;;;5051598;28;20084;-60
2023/01/26 06:03:33;;;;;;;3.92;2.38;;;19.50;52.00;;;;;;5051638;28;20040;-61
2023/01/26 06:05:58;;;;;;;4.43;2.53;;;19.50;52.00;;;;;;5049284;28;20048;-61
2023/01/26 06:08:24;;;;;;;3.20;2.03;;;19.50;51.90;;;;;;5051918;28;20045;-61
2023/01/26 06:10:49;;;;;;;3.60;2.47;;;19.50;51.90;;;;;;5051476;28;20044;-61
2023/01/26 06:13:15;;;;;;;3.72;2.20;;;19.50;51.90;;;;;;5051221;28;20451;-61
2023/01/26 06:15:40;;;;;;;3.67;2.30;;;19.50;51.90;;;;;;5051394;28;20061;-61
2023/01/26 06:18:06;;;;;;;3.60;2.47;;;19.50;51.90;;;;;;5049230;28;20103;-61
2023/01/26 06:20:31;;;;;;;3.67;2.28;;;19.50;51.90;;;;;;5050003;28;20060;-61
2023/01/26 06:23:00;;;;;;;3.70;2.58;;;19.50;51.80;;;;;;5050009;28;20110;-61
2023/01/26 06:25:26;;;;;;;3.70;2.28;;;19.50;51.90;;;;;;5054015;28;20072;-61
2023/01/26 06:27:55;;;;;;;3.42;2.40;;;19.50;51.80;;;;;;5054649;28;20485;-61
2023/01/26 06:30:20;;;;;;;4.13;2.60;;;19.50;51.90;;;;;;5053932;28;20048;-61
2023/01/26 06:32:46;;;;;;;3.65;2.40;;;19.60;51.90;;;;;;5054266;28;20041;-61
2023/01/26 06:35:12;;;;;;;4.18;2.20;;;19.50;51.80;;;;;;5054802;28;20094;-61
2023/01/26 06:37:37;;;;;;;3.55;2.30;;;19.60;51.90;;;;;;5070481;28;20041;-61
2023/01/26 06:40:04;;;;;;;2.63;1.80;;;19.60;51.90;;;;;;5053882;28;20041;-61
2023/01/26 06:42:29;;;;;;;2.83;1.75;;;19.60;51.80;;;;;;5055055;28;20044;-61
2023/01/26 06:44:57;;;;;;;3.42;2.13;;;19.60;51.80;;;;;;5054836;28;20104;-61
2023/01/26 06:47:23;;;;;;;3.20;2.10;;;19.60;51.80;;;;;;5054092;28;20045;-62
2023/01/26 06:49:48;;;;;;;3.60;2.40;;;19.60;51.90;;;;;;5054581;28;20052;-61
2023/01/26 06:52:30;;;;;;;3.30;2.05;;;19.60;51.80;;;;;;5054746;28;20037;-61
2023/01/26 06:54:57;;;;;;;3.03;1.90;;;19.60;51.80;;;;;;5054066;28;20045;-61
2023/01/26 06:57:23;;;;;;;3.30;2.30;;;19.60;51.80;;;;;;5053358;28;20053;-61
2023/01/26 06:59:48;;;;;;;3.65;2.13;;;19.60;51.80;;;;;;5054106;28;20045;-61
2023/01/26 07:02:18;;;;;;;3.00;1.98;;;19.60;51.70;;;;;;5054089;28;20087;-61
2023/01/26 07:04:45;;;;;;;2.97;2.08;;;19.60;51.80;;;;;;5054500;28;20045;-62
2023/01/26 07:07:10;;;;;;;3.88;2.03;;;19.60;52.50;;;;;;5053990;28;20126;-61
2023/01/26 07:09:36;;;;;;;3.20;2.00;;;19.60;51.80;;;;;;5053035;28;20045;-62
2023/01/26 07:12:01;;;;;;;3.38;2.33;;;19.60;51.70;;;;;;5053480;28;20040;-61
2023/01/26 07:14:27;;;;;;;3.05;2.00;;;19.70;51.80;;;;;;5052924;28;20041;-61
2023/01/26 07:16:53;;;;;;;2.97;1.73;;;19.60;51.70;;;;;;5052291;28;20128;-61
2023/01/26 07:19:19;;;;;;;2.72;2.00;;;19.70;51.80;;;;;;5054307;28;20119;-61
2023/01/26 07:21:44;;;;;;;2.97;1.85;;;19.70;51.80;;;;;;5053550;28;20451;-61
2023/01/26 07:24:10;;;;;;;2.83;1.83;;;19.70;51.80;;;;;;5053447;28;20032;-61
2023/01/26 07:26:36;;;;;;;2.65;1.60;;;19.70;51.70;;;;;;5053926;28;20508;-61
2023/01/26 07:29:01;;;;;;;2.75;1.90;;;19.70;51.70;;;;;;5051900;28;20120;-61
2023/01/26 07:31:27;;;;;;;3.10;1.90;;;19.70;51.70;;;;;;5054039;28;20044;-61
2023/01/26 07:33:52;;;;;;;3.35;1.90;;;19.70;51.70;;;;;;5053536;28;20075;-61
2023/01/26 07:36:18;;;;;;;3.38;2.00;;;19.70;51.70;;;;;;5053091;28;20049;-61
2023/01/26 07:38:43;;;;;;;3.35;1.80;;;19.70;51.70;;;;;;5053884;28;20496;-61
2023/01/26 07:41:10;;;;;;;3.42;1.88;;;19.70;51.60;;;;;;5053530;28;20404;-61
2023/01/26 07:43:36;;;;;;;5.10;1.80;;;19.70;51.70;;;;;;5052900;28;20068;-61
2023/01/26 07:46:02;;;;;;;3.15;1.85;;;19.70;51.70;;;;;;5053497;28;20083;-61
2023/01/26 07:48:28;;;;;;;3.05;1.73;;;19.80;51.70;;;;;;5052223;28;20041;-61
2023/01/26 07:50:56;;;;;;;3.63;1.95;;;19.70;51.60;;;;;;5052467;28;20465;-61
2023/01/26 07:53:24;;;;;;;3.97;1.50;;;19.70;51.60;;;;;;5051707;28;20112;-61
2023/01/26 07:55:49;;;;;;;3.97;1.97;;;19.70;51.60;;;;;;5068527;28;20098;-61
2023/01/26 07:58:17;;;;;;;3.22;2.00;;;19.80;51.70;;;;;;5052545;28;20041;-61
2023/01/26 08:00:45;;;;;;;4.27;2.10;;;19.70;51.70;;;;;;5053789;28;20096;-60
2023/01/26 08:03:12;;;;;;;3.45;2.00;;;19.80;51.80;;;;;;5052899;28;20348;-61
2023/01/26 08:05:37;;;;;;;6.18;1.80;;;19.80;51.80;;;;;;5052470;28;20055;-63
2023/01/26 08:08:03;;;;;;;5.47;2.50;;;19.80;51.80;;;;;;5052844;28;20041;-60
2023/01/26 08:10:30;;;;;;;3.03;1.70;;;19.80;51.90;;;;;;5052862;28;20040;-60
2023/01/26 08:12:59;;;;;;;3.35;1.92;;;19.80;51.90;;;;;;5052415;28;20045;-61
2023/01/26 08:15:25;;;;;;;4.38;2.17;;;19.80;52.00;;;;;;5051596;28;20053;-60
2023/01/26 08:17:52;;;;;;;5.05;1.85;;;19.80;52.10;;;;;;5052226;28;20382;-61
2023/01/26 08:20:18;;;;;;;3.45;1.90;;;19.80;52.10;;;;;;5052822;28;20578;-60
2023/01/26 08:22:43;;;;;;;4.47;1.92;;;19.80;52.20;;;;;;5052056;28;20072;-60
2023/01/26 08:25:09;;;;;;;4.55;2.20;;;19.80;52.20;;;;;;5066340;28;20409;-61
2023/01/26 08:27:34;;;;;;;4.50;1.88;;;19.80;52.30;;;;;;5050940;28;20041;-60
2023/01/26 08:30:00;;;;;;;6.30;2.15;;;19.90;52.50;;;;;;5052020;28;20041;-60
2023/01/26 08:32:27;;;;;;;2.85;1.58;;;19.90;52.70;;;;;;5066389;28;20044;-60
2023/01/26 08:34:53;;;;;;;3.35;1.80;;;19.90;52.90;;;;;;5050275;28;20047;-60
2023/01/26 08:37:18;;;;;;;3.90;2.10;;;19.90;53.00;;;;;;5052116;28;20052;-60
2023/01/26 08:39:44;;;;;;;2.95;1.40;;;19.90;53.20;;;;;;5051297;28;20037;-60
2023/01/26 08:42:09;;;;;;;4.10;1.95;;;19.90;53.20;;;;;;5051443;28;20488;-60
2023/01/26 08:44:35;;;;;;;6.55;2.03;;;19.90;53.40;;;;;;5050641;28;20439;-60
2023/01/26 08:47:00;;;;;;;7.53;2.00;;;19.90;53.40;;;;;;5037360;28;20049;-61
2023/01/26 08:49:26;;;;;;;4.57;1.65;;;20.00;53.60;;;;;;5052010;28;20120;-61
2023/01/26 08:51:51;;;;;;;3.80;1.88;;;20.00;53.70;;;;;;5051898;28;20035;-61
2023/01/26 08:54:17;;;;;;;3.80;1.85;;;20.00;53.70;;;;;;5050724;28;20048;-60
2023/01/26 08:56:42;;;;;;;2.75;1.67;;;20.00;53.70;;;;;;5066836;28;20464;-61
2023/01/26 08:59:08;;;;;;;3.25;1.85;;;20.00;53.80;;;;;;5067158;28;20032;-61
2023/01/26 09:01:34;;;;;;;3.40;1.70;;;20.00;53.80;;;;;;5051383;28;20041;-62
2023/01/26 09:04:00;;;;;;;5.07;2.25;;;20.00;53.80;;;;;;5066558;28;20041;-61
2023/01/26 09:06:27;;;;;;;3.83;1.90;;;20.10;53.80;;;;;;5052188;28;20159;-61
2023/01/26 09:08:52;;;;;;;2.90;1.55;;;20.00;53.90;;;;;;5050194;28;20377;-60
2023/01/26 09:11:18;;;;;;;3.80;1.73;;;20.10;53.90;;;;;;5059028;28;20545;-60
2023/01/26 09:13:43;;;;;;;3.08;1.80;;;20.10;53.90;;;;;;5051230;28;20037;-60
2023/01/26 09:16:14;;;;;;;3.40;1.83;;;20.10;53.90;;;;;;5050456;28;20110;-60
2023/01/26 09:18:40;;;;;;;2.85;1.90;;;20.10;54.00;;;;;;5050465;28;20044;-59
2023/01/26 09:21:06;;;;;;;5.07;1.83;;;20.10;54.00;;;;;;5050553;28;20041;-59
2023/01/26 09:23:32;;;;;;;4.70;2.15;;;20.20;54.00;;;;;;5044079;28;20064;-60
2023/01/26 09:25:58;;;;;;;3.33;1.90;;;20.20;54.00;;;;;;5045018;28;20396;-61
2023/01/26 09:28:23;;;;;;;3.20;1.63;;;20.20;54.00;;;;;;5050958;28;20029;-59
2023/01/26 09:30:49;;;;;;;4.20;2.00;;;20.20;54.00;;;;;;5066696;28;20493;-59
2023/01/26 09:33:14;;;;;;;4.70;1.90;;;20.20;54.10;;;;;;5051377;28;20392;-59
2023/01/26 09:35:40;;;;;;;3.13;1.65;;;20.20;54.10;;;;;;5065522;28;20051;-60
2023/01/26 09:38:06;;;;;;;5.90;1.95;;;20.20;54.30;;;;;;5044542;28;20076;-60
2023/01/26 09:40:38;;;;;;;3.72;1.60;;;20.20;54.30;;;;;;5050155;28;20037;-62
2023/01/26 09:43:12;;;;;;;4.03;1.88;;;20.20;54.30;;;;;;5047810;28;20039;-59
2023/01/26 09:45:55;;;;;;;3.92;1.50;;;20.20;54.30;;;;;;5049580;28;20401;-60
2023/01/26 09:48:46;;;;;;;4.45;2.00;;;20.20;54.50;;;;;;5050442;28;20497;-59
2023/01/26 09:51:31;;;;;;;3.33;1.70;;;20.20;54.50;;;;;;5037606;28;20057;-60
2023/01/26 09:54:20;;;;;;;3.05;1.88;;;20.20;54.50;;;;;;5048832;28;20484;-60
2023/01/26 09:56:46;;;;;;;4.30;1.83;;;20.20;54.50;;;;;;5023127;28;20053;-60
2023/01/26 09:59:20;;;;;;;3.53;1.60;;;20.20;54.50;;;;;;5052335;28;20496;-59
2023/01/26 10:02:01;;;;;;;2.53;1.70;;;20.20;54.40;;;;;;5054692;28;20037;-60
2023/01/26 10:04:32;;;;;;;2.72;1.80;;;20.30;54.50;;;;;;5053236;28;20087;-60
2023/01/26 10:06:58;;;;;;;4.22;1.70;;;20.30;54.40;;;;;;5069709;28;20036;-60
2023/01/26 10:09:26;;;;;;;4.00;1.85;;;20.20;54.40;;;;;;5053088;28;20032;-66
2023/01/26 10:11:57;;;;;;;3.25;1.60;;;20.30;54.50;;;;;;5053513;28;20049;-59
2023/01/26 10:14:36;;;;;;;4.28;1.63;;;20.20;54.30;;;;;;5036729;28;20048;-60
2023/01/26 10:17:03;;;;;;;5.00;2.00;;;20.20;54.40;;;;;;5036152;28;20128;-59
2023/01/26 10:19:51;;;;;;;3.38;1.50;;;20.20;54.50;;;;;;5045067;28;20037;-60
2023/01/26 10:22:29;;;;;;;5.68;2.10;;;20.20;54.60;;;;;;5053157;28;20040;-60
2023/01/26 10:24:55;;;;;;;3.30;1.48;;;20.20;54.70;;;;;;5051875;28;20071;-60
2023/01/26 10:27:20;;;;;;;3.80;1.75;;;20.20;54.70;;;;;;5060445;28;20484;-60
2023/01/26 10:29:46;;;;;;;4.35;1.75;;;20.20;54.70;;;;;;5052620;28;20033;-60
2023/01/26 10:32:16;;;;;;;5.03;1.52;;;20.20;54.80;;;;;;5049870;28;20078;-60
2023/01/26 10:34:42;;;;;;;3.72;1.63;;;20.20;54.70;;;;;;5048510;28;20053;-60
2023/01/26 10:37:27;;;;;;;5.93;1.48;;;20.20;54.60;;;;;;5052949;28;20079;-60
2023/01/26 10:39:56;;;;;;;3.78;1.80;;;20.20;54.50;;;;;;5034910;28;20060;-59
2023/01/26 10:42:22;;;;;;;5.63;2.17;;;20.20;54.40;;;;;;5054235;28;20155;-59
2023/01/26 10:44:47;;;;;;;6.57;1.80;;;20.20;54.50;;;;;;5052161;28;20069;-60
2023/01/26 10:47:17;;;;;;;5.35;1.77;;;20.20;54.50;;;;;;5045946;28;20037;-60
2023/01/26 10:49:43;;;;;;;3.47;1.65;;;20.20;54.40;;;;;;5053988;28;20040;-60
2023/01/26 10:52:24;;;;;;;4.63;1.80;;;20.10;54.30;;;;;;5052533;28;20048;-60
2023/01/26 10:55:10;;;;;;;5.28;1.50;;;20.10;54.50;;;;;;5054996;28;20072;-60
2023/01/26 10:57:39;;;;;;;6.15;1.70;;;20.10;54.60;;;;;;5050578;28;20436;-60
2023/01/26 11:00:09;;;;;;;4.70;1.55;;;20.10;54.60;;;;;;5051253;28;20447;-60
2023/01/26 11:02:35;;;;;;;4.97;1.80;;;20.10;54.70;;;;;;5051949;28;20041;-60
2023/01/26 11:05:07;;;;;;;5.82;2.03;;;20.10;54.70;;;;;;5053136;28;20047;-60
2023/01/26 11:07:33;;;;;;;5.50;1.98;;;20.10;54.80;;;;;;5053291;28;20044;-60
2023/01/26 11:10:16;;;;;;;3.75;1.70;;;20.10;54.80;;;;;;5053017;28;20041;-59
2023/01/26 11:12:42;;;;;;;7.65;2.00;;;20.10;54.70;;;;;;5072765;28;20683;-59
2023/01/26 11:15:20;;;;;;;7.05;1.70;;;20.10;54.70;;;;;;5054883;28;20522;-59
2023/01/26 11:18:00;;;;;;;4.30;1.90;;;20.10;54.70;;;;;;5073913;28;20400;-59
2023/01/26 11:20:31;;;;;;;5.22;1.70;;;20.10;54.60;;;;;;5072313;28;20520;-59
2023/01/26 11:23:04;;;;;;;4.30;1.65;;;20.10;54.60;;;;;;5073477;28;20397;-58
2023/01/26 11:25:58;;;;;;;5.95;1.50;;;20.10;54.60;;;;;;5070487;28;20048;-60
2023/01/26 11:28:41;;;;;;;4.72;1.50;;;20.00;54.60;;;;;;5037427;28;20418;-58
2023/01/26 11:31:29;;;;;;;4.53;1.90;;;20.00;54.70;;;;;;5051261;28;20477;-60
2023/01/26 11:34:00;;;;;;;8.95;1.70;;;20.00;54.70;;;;;;5052928;28;20060;-61
2023/01/26 11:36:50;;;;;;;6.78;1.63;;;20.00;54.90;;;;;;5055819;28;20068;-60
2023/01/26 11:39:18;;;;;;;5.32;1.52;;;20.00;55.00;;;;;;5051782;28;20063;-60
2023/01/26 11:41:50;;;;;;;5.15;1.83;;;20.00;55.00;;;;;;5067520;28;20139;-60
2023/01/26 11:44:39;;;;;;;5.50;1.60;;;20.00;55.10;;;;;;5053175;28;20041;-60
2023/01/26 11:47:23;;;;;;;5.65;1.77;;;20.00;55.10;;;;;;5042541;28;20040;-60
2023/01/26 11:50:18;;;;;;;5.47;2.03;;;20.00;55.10;;;;;;5051691;28;20448;-60
2023/01/26 11:53:04;;;;;;;5.25;1.60;;;19.90;55.10;;;;;;5019365;28;20052;-61
2023/01/26 11:56:04;;;;;;;5.45;1.73;;;19.90;55.20;;;;;;5047274;28;20518;-60
2023/01/26 11:58:29;;;;;;;6.78;1.58;;;19.90;55.20;;;;;;5037351;28;20053;-60
2023/01/26 12:00:56;;;;;;;5.30;1.67;;;19.90;55.20;;;;;;5060274;28;20044;-60
2023/01/26 12:03:48;;;;;;;4.78;1.63;;;19.90;55.30;;;;;;5051065;28;20049;-60
2023/01/26 12:06:19;;;;;;;4.45;1.42;;;19.90;55.20;;;;;;5051244;28;20045;-60
2023/01/26 12:08:49;;;;;;;4.32;1.40;;;19.90;55.30;;;;;;5050889;28;20087;-60
2023/01/26 12:11:21;;;;;;;6.75;1.65;;;19.90;55.20;;;;;;5033750;28;20377;-59
2023/01/26 12:14:11;;;;;;;3.35;1.25;;;19.90;55.20;;;;;;5051329;28;20045;-60
2023/01/26 12:16:43;;;;;;;4.25;1.20;;;19.90;55.10;;;;;;5006031;28;20108;-60
2023/01/26 12:19:26;;;;;;;3.90;1.50;;;19.90;55.10;;;;;;5050609;28;20057;-60
2023/01/26 12:21:53;;;;;;;5.47;1.30;;;19.90;55.10;;;;;;5050351;28;20051;-60
2023/01/26 12:24:42;;;;;;;4.72;1.20;;;19.90;55.20;;;;;;5051073;28;20041;-60
2023/01/26 12:27:18;;;;;;;4.53;1.40;;;19.90;55.20;;;;;;5030745;28;20049;-60
2023/01/26 12:29:47;;;;;;;7.75;1.63;;;19.90;55.00;;;;;;5030313;28;20123;-60
2023/01/26 12:32:13;;;;;;;4.30;1.48;;;19.90;55.00;;;;;;5050950;28;20037;-60
2023/01/26 12:34:38;;;;;;;4.00;1.15;;;19.90;54.90;;;;;;5050726;28;20140;-60
2023/01/26 12:37:26;;;;;;;7.25;1.58;;;19.90;54.90;;;;;;5052085;28;20045;-60
2023/01/26 12:40:08;;;;;;;3.63;1.45;;;19.90;54.70;;;;;;5051928;28;20049;-60
2023/01/26 12:42:46;;;;;;;5.30;1.40;;;20.00;54.80;;;;;;5052824;28;20120;-60
2023/01/26 12:45:18;;;;;;;4.32;1.50;;;19.90;54.60;;;;;;5050830;28;20048;-60
2023/01/26 12:47:52;;;;;;;4.55;1.35;;;20.00;54.70;;;;;;5034605;28;20041;-60
2023/01/26 12:50:34;;;;;;;5.55;1.77;;;20.00;54.60;;;;;;5034905;28;20086;-60
2023/01/26 12:53:04;;;;;;;4.10;1.33;;;20.00;54.60;;;;;;5050467;28;20052;-60
2023/01/26 12:55:41;;;;;;;5.43;1.27;;;20.00;54.60;;;;;;5067489;28;20094;-60
2023/01/26 12:58:14;;;;;;;6.80;1.25;;;20.00;54.70;;;;;;5054621;28;20466;-60
2023/01/26 13:00:39;;;;;;;4.68;1.10;;;20.00;54.50;;;;;;5053690;28;20067;-60
2023/01/26 13:03:17;;;;;;;5.40;1.25;;;20.00;54.60;;;;;;5071800;28;20045;-60
2023/01/26 13:05:58;;;;;;;3.77;1.27;;;20.00;54.50;;;;;;5071058;28;20048;-60
2023/01/26 13:08:29;;;;;;;4.43;1.30;;;20.00;54.50;;;;;;5072318;28;20055;-60
2023/01/26 13:10:55;;;;;;;3.33;1.10;;;20.00;54.50;;;;;;5071839;28;20381;-60
2023/01/26 13:13:50;;;;;;;6.10;1.20;;;20.00;54.50;;;;;;5053364;28;20037;-60
2023/01/26 13:16:16;;;;;;;6.30;1.77;;;20.00;54.50;;;;;;5071990;28;20052;-60
2023/01/26 13:18:54;;;;;;;3.40;1.17;;;20.10;54.50;;;;;;5071174;28;20060;-60
2023/01/26 13:21:38;;;;;;;4.20;1.20;;;20.10;54.50;;;;;;5070083;28;20041;-60
2023/01/26 13:24:16;;;;;;;5.90;1.38;;;20.10;54.40;;;;;;5072062;28;20131;-60
2023/01/26 13:26:49;;;;;;;4.00;1.20;;;20.10;54.40;;;;;;5070823;28;20048;-60
2023/01/26 13:29:33;;;;;;;6.63;1.48;;;20.10;54.40;;;;;;5071273;28;20488;-60
2023/01/26 13:32:08;;;;;;;5.45;1.13;;;20.10;54.40;;;;;;5053938;28;20090;-59
2023/01/26 13:34:40;;;;;;;5.05;1.48;;;20.10;54.30;;;;;;5074995;28;20036;-60
2023/01/26 13:37:27;;;;;;;4.80;1.23;;;20.10;54.30;;;;;;5074598;28;20488;-61
2023/01/26 13:39:55;;;;;;;3.28;1.20;;;20.20;54.30;;;;;;5074789;28;20040;-60
2023/01/26 13:42:35;;;;;;;6.15;1.08;;;20.20;54.20;;;;;;5073993;28;20373;-60
2023/01/26 13:45:13;;;;;;;4.45;1.20;;;20.20;54.20;;;;;;5057509;28;20040;-59
2023/01/26 13:47:40;;;;;;;5.40;1.33;;;20.20;54.20;;;;;;5074929;28;20036;-59